Terminal Aerodrome Forecast
Issued by NWS

Home | Current Version | Previous Version | Text Only | Print | Product List | Glossary On
Versions: 1 2 3 4 5 6 7 8 9 10 11 12 13 14 15 16
000
FTUS46 KSEW 161800 AAA
TAFHQM
TAF AMD
KHQM 161835Z 1619/1718 19010KT 3SM -RA BR SCT009 OVC015
      TEMPO 1619/1622 2SM -RA BR BKN009 OVC015
     FM170000 17010KT 5SM -RA BR FEW009 BKN015 OVC030
     FM170600 15010KT 2SM RA BR BKN009 OVC015
     FM171200 15013KT 4SM -RA BR SCT009 BKN015 OVC028=

USA.gov is the U.S. government's official web portal to all federal, state and local government web resources and services.